Aviation Digital Data Service (ADDS)

Output produced by TAFs form (2114 UTC 20 November 2017)
found at http://www.aviationweather.gov/adds/tafs/
 
KDLH 201723Z 2018/2118 18008KT P6SM BKN120 
     FM210100 24010KT P6SM BKN140 
     FM210300 26012G22KT P6SM BKN150 WS020/29045KT 
     FM210600 28017G27KT P6SM BKN020 OVC030 
     FM211300 31019G31KT P6SM SCT015 BKN035